createdAt,value
2023-04-12T00:00:17.837Z,100.00
2023-04-12T00:02:44.908Z,100.00
2023-04-12T00:05:12.043Z,100.00
2023-04-12T00:07:39.243Z,100.00
2023-04-12T00:10:08.153Z,100.00
2023-04-12T00:12:35.074Z,100.00
2023-04-12T00:15:01.955Z,100.00
2023-04-12T00:17:28.839Z,100.00
2023-04-12T00:19:55.845Z,100.00
2023-04-12T00:22:22.821Z,100.00
2023-04-12T00:24:49.659Z,100.00
2023-04-12T00:27:16.480Z,100.00
2023-04-12T00:29:43.355Z,100.00
2023-04-12T00:32:10.182Z,100.00
2023-04-12T00:34:37.009Z,100.00
2023-04-12T00:37:03.886Z,100.00
2023-04-12T00:39:30.698Z,100.00
2023-04-12T00:41:57.617Z,100.00
2023-04-12T00:44:24.733Z,100.00
2023-04-12T00:46:51.903Z,100.00
2023-04-12T00:49:18.714Z,100.00
2023-04-12T00:51:45.839Z,100.00
2023-04-12T00:54:14.410Z,100.00
2023-04-12T00:56:41.417Z,100.00
2023-04-12T00:59:08.574Z,100.00
2023-04-12T01:01:35.522Z,100.00
2023-04-12T01:04:04.565Z,100.00
2023-04-12T01:06:41.792Z,100.00
2023-04-12T01:09:35.905Z,100.00
2023-04-12T01:12:32.390Z,100.00
2023-04-12T01:15:12.513Z,100.00
2023-04-12T01:17:58.297Z,100.00
2023-04-12T01:20:31.761Z,100.00
2023-04-12T01:23:23.306Z,100.00
2023-04-12T01:26:00.265Z,100.00
2023-04-12T01:28:33.825Z,100.00
2023-04-12T01:31:06.626Z,100.00
2023-04-12T01:33:36.752Z,100.00
2023-04-12T01:36:11.507Z,100.00
2023-04-12T01:38:43.584Z,100.00
2023-04-12T01:41:10.838Z,100.00
2023-04-12T01:43:45.586Z,100.00
2023-04-12T01:46:18.917Z,100.00
2023-04-12T01:48:52.781Z,100.00
2023-04-12T01:51:42.617Z,100.00
2023-04-12T01:54:13.959Z,100.00
2023-04-12T01:56:46.291Z,100.00
2023-04-12T01:59:16.031Z,100.00
2023-04-12T02:01:44.391Z,100.00
2023-04-12T02:04:12.619Z,100.00
2023-04-12T02:06:40.374Z,100.00
2023-04-12T02:09:07.244Z,100.00
2023-04-12T02:11:34.789Z,100.00
2023-04-12T02:14:01.651Z,100.00
2023-04-12T02:16:32.397Z,100.00
2023-04-12T02:18:59.418Z,100.00
2023-04-12T02:21:27.785Z,100.00
2023-04-12T02:23:55.034Z,100.00
2023-04-12T02:26:23.679Z,100.00
2023-04-12T02:28:50.763Z,100.00
2023-04-12T02:31:17.712Z,100.00
2023-04-12T02:33:45.786Z,100.00
2023-04-12T02:36:12.893Z,100.00
2023-04-12T02:38:39.811Z,100.00
2023-04-12T02:41:07.015Z,100.00
2023-04-12T02:43:33.971Z,100.00
2023-04-12T02:46:01.076Z,100.00
2023-04-12T02:48:27.907Z,100.00
2023-04-12T02:50:54.692Z,100.00
2023-04-12T02:53:21.732Z,100.00
2023-04-12T02:55:48.566Z,100.00
2023-04-12T02:58:15.456Z,100.00
2023-04-12T03:00:43.703Z,100.00
2023-04-12T03:03:10.731Z,100.00
2023-04-12T03:05:38.012Z,100.00
2023-04-12T03:08:04.985Z,100.00
2023-04-12T03:10:31.817Z,100.00
2023-04-12T03:12:58.597Z,100.00
2023-04-12T03:15:25.621Z,100.00
2023-04-12T03:17:52.779Z,100.00
2023-04-12T03:20:20.489Z,100.00
2023-04-12T03:22:47.304Z,100.00
2023-04-12T03:25:14.171Z,100.00
2023-04-12T03:27:41.037Z,100.00
2023-04-12T03:30:08.846Z,100.00
2023-04-12T03:32:35.715Z,100.00
2023-04-12T03:35:03.388Z,100.00
2023-04-12T03:37:30.429Z,100.00
2023-04-12T03:39:57.191Z,100.00
2023-04-12T03:42:33.026Z,100.00
2023-04-12T03:45:01.119Z,100.00
2023-04-12T03:47:28.077Z,100.00
2023-04-12T03:50:12.356Z,100.00
2023-04-12T03:52:39.673Z,100.00
2023-04-12T03:55:07.606Z,100.00
2023-04-12T03:57:35.212Z,100.00
2023-04-12T04:00:02.591Z,100.00
2023-04-12T04:02:30.002Z,100.00
2023-04-12T04:04:57.236Z,100.00
2023-04-12T04:07:24.298Z,100.00
2023-04-12T04:09:51.065Z,100.00
2023-04-12T04:12:17.833Z,100.00
2023-04-12T04:14:44.856Z,100.00
2023-04-12T04:17:11.689Z,100.00
2023-04-12T04:19:39.056Z,100.00
2023-04-12T04:22:05.843Z,100.00
2023-04-12T04:24:34.204Z,100.00
2023-04-12T04:27:01.211Z,100.00
2023-04-12T04:29:29.152Z,100.00
2023-04-12T04:31:57.437Z,100.00
2023-04-12T04:34:25.550Z,100.00
2023-04-12T04:36:52.812Z,100.00
2023-04-12T04:39:19.584Z,100.00
2023-04-12T04:41:46.540Z,100.00
2023-04-12T04:44:13.413Z,100.00
2023-04-12T04:46:40.221Z,100.00
2023-04-12T04:49:07.179Z,100.00
2023-04-12T04:51:33.990Z,100.00
2023-04-12T04:54:02.137Z,100.00
2023-04-12T04:56:29.173Z,100.00
2023-04-12T04:58:57.222Z,100.00
2023-04-12T05:01:28.351Z,100.00
2023-04-12T05:03:56.168Z,100.00
2023-04-12T05:06:23.644Z,100.00
2023-04-12T05:08:52.250Z,100.00
2023-04-12T05:11:19.767Z,100.00
2023-04-12T05:13:46.713Z,100.00
2023-04-12T05:16:13.788Z,100.00
2023-04-12T05:18:40.807Z,100.00
2023-04-12T05:21:07.789Z,100.00
2023-04-12T05:23:42.397Z,100.00
2023-04-12T05:26:09.191Z,100.00
2023-04-12T05:28:36.244Z,100.00
2023-04-12T05:31:03.092Z,100.00
2023-04-12T05:33:31.581Z,100.00
2023-04-12T05:35:59.804Z,100.00
2023-04-12T05:38:27.086Z,100.00
2023-04-12T05:40:59.311Z,100.00
2023-04-12T05:43:26.045Z,100.00
2023-04-12T05:45:53.085Z,100.00
2023-04-12T05:48:21.175Z,100.00
2023-04-12T05:50:52.574Z,100.00
2023-04-12T05:53:19.435Z,100.00
2023-04-12T05:55:46.296Z,100.00
2023-04-12T05:58:13.646Z,100.00
2023-04-12T06:00:44.035Z,100.00
2023-04-12T06:03:11.558Z,100.00
2023-04-12T06:05:39.143Z,100.00
2023-04-12T06:08:06.424Z,100.00
2023-04-12T06:10:33.227Z,100.00
2023-04-12T06:13:00.179Z,100.00
2023-04-12T06:15:26.931Z,100.00
2023-04-12T06:17:53.841Z,100.00
2023-04-12T06:20:20.897Z,100.00
2023-04-12T06:22:47.686Z,100.00
2023-04-12T06:25:16.469Z,100.00
2023-04-12T06:27:43.833Z,100.00
2023-04-12T06:30:11.441Z,100.00
2023-04-12T06:32:38.676Z,100.00
2023-04-12T06:35:06.079Z,100.00
2023-04-12T06:37:32.839Z,100.00
2023-04-12T06:39:59.801Z,98.30
2023-04-12T06:42:26.653Z,96.60
2023-04-12T06:44:53.416Z,92.30
2023-04-12T06:47:22.949Z,90.10
2023-04-12T06:49:53.236Z,85.80
2023-04-12T06:52:23.911Z,85.80
2023-04-12T06:54:50.648Z,81.20
2023-04-12T06:57:17.750Z,79.40
2023-04-12T06:59:44.835Z,76.10
2023-04-12T07:02:12.129Z,77.10
2023-04-12T07:04:38.939Z,74.10
2023-04-12T07:07:07.064Z,73.70
2023-04-12T07:09:33.921Z,72.10
2023-04-12T07:12:02.380Z,70.20
2023-04-12T07:14:29.253Z,68.20
2023-04-12T07:16:56.033Z,67.30
2023-04-12T07:19:22.834Z,66.20
2023-04-12T07:21:52.446Z,64.60
2023-04-12T07:24:19.353Z,62.90
2023-04-12T07:26:46.527Z,61.40
2023-04-12T07:29:14.736Z,60.20
2023-04-12T07:31:41.654Z,61.10
2023-04-12T07:34:08.811Z,60.60
2023-04-12T07:36:35.710Z,57.60
2023-04-12T07:39:02.545Z,58.40
2023-04-12T07:41:29.338Z,59.80
2023-04-12T07:43:56.579Z,59.60
2023-04-12T07:46:23.404Z,57.50
2023-04-12T07:48:51.625Z,56.60
2023-04-12T07:51:18.512Z,57.40
2023-04-12T07:53:48.276Z,55.40
2023-04-12T07:56:15.556Z,53.30
2023-04-12T07:58:42.402Z,53.90
2023-04-12T08:01:11.912Z,52.30
2023-04-12T08:03:38.967Z,52.40
2023-04-12T08:06:06.712Z,51.90
2023-04-12T08:08:33.934Z,50.80
2023-04-12T08:11:02.919Z,51.30
2023-04-12T08:13:29.648Z,51.10
2023-04-12T08:15:56.516Z,52.90
2023-04-12T08:18:23.293Z,49.60
2023-04-12T08:20:50.126Z,48.80
2023-04-12T08:23:17.350Z,50.50
2023-04-12T08:25:44.152Z,48.10
2023-04-12T08:28:11.198Z,48.60
2023-04-12T08:30:38.359Z,50.30
2023-04-12T08:33:05.653Z,51.10
2023-04-12T08:35:32.900Z,49.10
2023-04-12T08:38:07.650Z,48.30
2023-04-12T08:40:35.420Z,47.90
2023-04-12T08:43:05.803Z,47.30
2023-04-12T08:45:34.216Z,47.30
2023-04-12T08:48:03.835Z,47.30
2023-04-12T08:50:31.408Z,47.00
2023-04-12T08:53:01.081Z,47.90
2023-04-12T08:55:28.907Z,45.70
2023-04-12T08:57:56.873Z,45.30
2023-04-12T09:00:24.184Z,44.90
2023-04-12T09:02:53.344Z,47.40
2023-04-12T09:05:20.497Z,46.00
2023-04-12T09:07:47.359Z,45.60
2023-04-12T09:10:32.696Z,44.70
2023-04-12T09:13:00.567Z,43.40
2023-04-12T09:15:28.715Z,44.20
2023-04-12T09:18:10.369Z,43.30
2023-04-12T09:20:38.271Z,42.30
2023-04-12T09:23:22.452Z,43.10
2023-04-12T09:25:52.018Z,42.20
2023-04-12T09:28:27.113Z,42.00
2023-04-12T09:30:55.757Z,41.10
2023-04-12T09:33:34.157Z,42.90
2023-04-12T09:36:02.915Z,41.60
2023-04-12T09:38:31.166Z,41.90
2023-04-12T09:40:58.197Z,40.90
2023-04-12T09:43:39.068Z,40.20
2023-04-12T09:46:14.766Z,39.80
2023-04-12T09:48:48.358Z,40.90
2023-04-12T09:51:33.160Z,38.60
2023-04-12T09:54:05.610Z,39.00
2023-04-12T09:56:36.824Z,37.90
2023-04-12T09:59:07.539Z,39.20
2023-04-12T10:01:39.119Z,37.90
2023-04-12T10:04:07.760Z,41.40
2023-04-12T10:06:36.218Z,38.20
2023-04-12T10:09:06.817Z,38.00
2023-04-12T10:11:34.226Z,38.30
2023-04-12T10:14:03.381Z,38.40
2023-04-12T10:16:31.120Z,37.30
2023-04-12T10:19:04.432Z,37.50
2023-04-12T10:21:32.000Z,37.70
2023-04-12T10:23:59.708Z,36.80
2023-04-12T10:26:27.654Z,36.40
2023-04-12T10:29:23.975Z,37.80
2023-04-12T10:31:51.723Z,36.60
2023-04-12T10:34:23.291Z,37.20
2023-04-12T10:37:04.296Z,37.60
2023-04-12T10:39:43.064Z,37.00
2023-04-12T10:42:25.139Z,34.90
2023-04-12T10:44:58.759Z,36.50
2023-04-12T10:47:53.844Z,39.70
2023-04-12T10:50:27.421Z,39.30
2023-04-12T10:53:25.278Z,39.30
2023-04-12T10:55:52.321Z,39.80
2023-04-12T10:58:48.506Z,40.10
2023-04-12T11:01:18.458Z,41.40
2023-04-12T11:04:07.612Z,43.40
2023-04-12T11:07:11.664Z,42.50
2023-04-12T11:09:48.680Z,42.70
2023-04-12T11:15:41.456Z,44.20
2023-04-12T11:20:40.847Z,42.10
2023-04-12T11:23:10.637Z,42.60
2023-04-12T11:25:38.584Z,44.40
2023-04-12T11:28:17.190Z,45.00
2023-04-12T11:30:53.673Z,45.30
2023-04-12T11:33:36.761Z,44.60
2023-04-12T11:36:08.721Z,46.20
2023-04-12T11:38:37.772Z,44.40
2023-04-12T11:41:08.201Z,44.30
2023-04-12T11:43:38.624Z,41.80
2023-04-12T11:48:47.730Z,41.70
2023-04-12T11:51:31.634Z,40.60
2023-04-12T11:53:59.681Z,42.50
2023-04-12T11:56:27.297Z,40.10
2023-04-12T11:58:54.160Z,40.30
2023-04-12T12:01:22.189Z,43.30
2023-04-12T12:03:50.035Z,43.80
2023-04-12T12:06:18.010Z,42.00
2023-04-12T12:08:45.285Z,43.20
2023-04-12T12:11:12.634Z,43.80
2023-04-12T12:13:49.376Z,42.80
2023-04-12T12:16:17.501Z,43.40
2023-04-12T12:18:46.362Z,41.30
2023-04-12T12:21:14.537Z,42.50
2023-04-12T12:23:46.078Z,43.10
2023-04-12T12:26:24.600Z,41.60
2023-04-12T12:28:56.259Z,42.50
2023-04-12T12:31:26.635Z,42.10
2023-04-12T12:33:58.629Z,43.30
2023-04-12T12:36:33.126Z,44.80
2023-04-12T12:39:10.523Z,44.20
2023-04-12T12:41:37.997Z,45.20
2023-04-12T12:44:05.075Z,44.30
2023-04-12T12:46:50.678Z,44.10
2023-04-12T12:49:19.134Z,44.80
2023-04-12T12:51:46.739Z,45.10
2023-04-12T12:54:25.054Z,45.50
2023-04-12T12:57:03.433Z,45.60
2023-04-12T12:59:30.575Z,47.00
2023-04-12T13:01:57.429Z,46.20
2023-04-12T13:04:24.742Z,46.30
2023-04-12T13:06:52.293Z,47.30
2023-04-12T13:09:19.032Z,46.70
2023-04-12T13:11:46.003Z,46.60
2023-04-12T13:14:12.762Z,48.10
2023-04-12T13:16:40.960Z,47.60
2023-04-12T13:19:08.278Z,47.00
2023-04-12T13:21:35.141Z,47.60
2023-04-12T13:24:02.302Z,45.40
2023-04-12T13:26:29.078Z,45.30
2023-04-12T13:28:56.023Z,46.70
2023-04-12T13:31:23.230Z,45.00
2023-04-12T13:33:49.967Z,47.10
2023-04-12T13:36:16.669Z,45.60
2023-04-12T13:38:43.780Z,45.50
2023-04-12T13:41:10.744Z,46.00
2023-04-12T13:43:37.510Z,46.60
2023-04-12T13:46:04.467Z,46.60
2023-04-12T13:48:33.917Z,46.90
2023-04-12T13:51:04.188Z,48.50
2023-04-12T13:53:31.276Z,47.40
2023-04-12T13:55:58.076Z,47.40
2023-04-12T13:58:25.806Z,48.00
2023-04-12T14:00:54.445Z,49.20
2023-04-12T14:03:22.331Z,49.30
2023-04-12T14:05:49.131Z,48.80
2023-04-12T14:08:29.380Z,47.90
2023-04-12T14:10:56.474Z,48.40
2023-04-12T14:13:24.104Z,50.00
2023-04-12T14:15:51.758Z,52.70
2023-04-12T14:18:19.882Z,54.50
2023-04-12T14:20:52.307Z,53.00
2023-04-12T14:23:19.420Z,55.30
2023-04-12T14:25:46.355Z,54.70
2023-04-12T14:28:16.811Z,57.30
2023-04-12T14:30:44.257Z,56.30
2023-04-12T14:33:11.549Z,55.40
2023-04-12T14:35:38.471Z,55.70
2023-04-12T14:38:05.971Z,56.00
2023-04-12T14:40:32.756Z,58.20
2023-04-12T14:42:59.512Z,57.70
2023-04-12T14:45:27.616Z,56.00
2023-04-12T14:47:54.778Z,55.50
2023-04-12T14:50:22.021Z,56.30
2023-04-12T14:52:49.418Z,57.30
2023-04-12T14:55:19.400Z,57.90
2023-04-12T14:57:46.187Z,61.90
2023-04-12T15:03:12.023Z,64.20
2023-04-12T15:05:40.301Z,62.60
2023-04-12T15:08:07.163Z,63.80
2023-04-12T15:10:36.458Z,67.10
2023-04-12T15:16:42.484Z,70.40
2023-04-12T15:19:16.719Z,71.20
2023-04-12T15:21:46.714Z,70.30
2023-04-12T15:24:13.547Z,71.50
2023-04-12T15:26:40.387Z,69.80
2023-04-12T15:29:29.306Z,68.60
2023-04-12T15:31:59.066Z,71.30
2023-04-12T15:34:28.350Z,73.90
2023-04-12T15:36:55.161Z,72.20
2023-04-12T15:39:22.293Z,73.20
2023-04-12T15:41:49.172Z,72.10
2023-04-12T15:44:16.137Z,72.50
2023-04-12T15:46:43.188Z,71.90
2023-04-12T15:49:11.268Z,72.30
2023-04-12T15:51:38.516Z,73.50
2023-04-12T15:54:06.249Z,74.80
2023-04-12T15:56:34.484Z,74.20
2023-04-12T15:59:01.820Z,75.50
2023-04-12T16:01:28.824Z,76.40
2023-04-12T16:03:55.949Z,78.50
2023-04-12T16:06:24.352Z,78.30
2023-04-12T16:08:54.500Z,80.40
2023-04-12T16:11:23.906Z,80.60
2023-04-12T16:13:52.546Z,82.60
2023-04-12T16:16:22.520Z,82.70
2023-04-12T16:18:49.827Z,83.60
2023-04-12T16:21:20.374Z,83.30
2023-04-12T16:23:48.864Z,82.60
2023-04-12T16:26:21.851Z,83.90
2023-04-12T16:28:50.341Z,83.70
2023-04-12T16:31:19.590Z,83.40
2023-04-12T16:33:48.927Z,83.10
2023-04-12T16:36:16.532Z,83.50
2023-04-12T16:38:46.762Z,85.00
2023-04-12T16:41:13.745Z,85.10
2023-04-12T16:43:42.068Z,84.50
2023-04-12T16:46:10.952Z,85.80
2023-04-12T16:52:09.841Z,84.00
2023-04-12T16:54:36.617Z,85.60
2023-04-12T16:57:04.077Z,85.60
2023-04-12T16:59:34.421Z,85.90
2023-04-12T17:02:01.436Z,85.90
2023-04-12T17:04:28.415Z,86.20
2023-04-12T17:06:55.346Z,86.30
2023-04-12T17:09:22.159Z,85.80
2023-04-12T17:11:48.927Z,85.20
2023-04-12T17:14:15.699Z,86.60
2023-04-12T17:16:42.545Z,85.50
2023-04-12T17:19:10.442Z,85.80
2023-04-12T17:21:44.685Z,86.30
2023-04-12T17:24:12.085Z,86.80
2023-04-12T17:26:40.294Z,87.90
2023-04-12T17:29:07.358Z,88.10
2023-04-12T17:31:35.873Z,87.90
2023-04-12T17:34:04.526Z,88.40
2023-04-12T17:36:31.656Z,88.30
2023-04-12T17:39:00.367Z,89.10
2023-04-12T17:41:28.194Z,89.30
2023-04-12T17:43:55.459Z,89.40
2023-04-12T17:46:24.156Z,89.90
2023-04-12T17:48:52.148Z,90.30
2023-04-12T17:51:19.069Z,90.40
2023-04-12T17:53:46.133Z,89.50
2023-04-12T17:56:12.900Z,90.50
2023-04-12T17:58:39.648Z,90.90
2023-04-12T18:01:06.661Z,91.50
2023-04-12T18:03:34.578Z,91.10
2023-04-12T18:06:04.050Z,90.60
2023-04-12T18:08:30.818Z,91.70
2023-04-12T18:10:57.949Z,91.50
2023-04-12T18:13:24.849Z,92.00
2023-04-12T18:15:51.922Z,92.30
2023-04-12T18:18:18.745Z,92.30
2023-04-12T18:20:45.677Z,92.50
2023-04-12T18:23:12.458Z,92.20
2023-04-12T18:25:39.310Z,92.30
2023-04-12T18:28:07.949Z,92.40
2023-04-12T18:30:35.361Z,92.80
2023-04-12T18:33:03.914Z,92.70
2023-04-12T18:35:31.642Z,92.70
2023-04-12T18:37:58.485Z,92.90
2023-04-12T18:40:25.344Z,92.90
2023-04-12T18:42:52.954Z,93.20
2023-04-12T18:45:20.065Z,92.80
2023-04-12T18:47:46.936Z,92.90
2023-04-12T18:50:14.611Z,93.10
2023-04-12T18:52:50.984Z,92.90
2023-04-12T18:55:17.973Z,93.00
2023-04-12T18:57:45.618Z,93.00
2023-04-12T19:00:17.074Z,92.90
2023-04-12T19:02:43.948Z,92.80
2023-04-12T19:05:11.745Z,92.90
2023-04-12T19:07:38.594Z,92.30
2023-04-12T19:10:05.797Z,92.20
2023-04-12T19:12:33.155Z,92.70
2023-04-12T19:15:01.482Z,92.00
2023-04-12T19:17:29.232Z,92.00
2023-04-12T19:19:56.229Z,91.90
2023-04-12T19:22:26.425Z,91.90
2023-04-12T19:24:53.769Z,92.30
2023-04-12T19:27:22.919Z,92.80
2023-04-12T19:29:53.555Z,92.40
2023-04-12T19:32:20.354Z,92.60
2023-04-12T19:37:54.668Z,91.50
2023-04-12T19:40:21.574Z,91.70
2023-04-12T19:42:48.384Z,91.70
2023-04-12T19:51:44.963Z,91.80
2023-04-12T19:54:28.948Z,90.80
2023-04-12T19:57:01.305Z,91.20
2023-04-12T19:59:49.267Z,90.50
2023-04-12T20:02:19.416Z,90.50
2023-04-12T20:08:15.260Z,90.00
2023-04-12T20:10:59.408Z,90.20
2023-04-12T20:13:39.000Z,89.30
2023-04-12T20:26:29.151Z,90.20
2023-04-12T20:29:18.383Z,89.20
2023-04-12T20:32:01.507Z,88.20
2023-04-12T20:35:11.482Z,87.80
2023-04-12T20:38:19.136Z,87.90
2023-04-12T20:40:59.020Z,88.60
2023-04-12T20:49:45.480Z,87.90
2023-04-12T20:58:57.432Z,88.60
2023-04-12T21:01:31.170Z,88.90
2023-04-12T21:04:13.740Z,89.50
2023-04-12T21:09:30.857Z,90.70
2023-04-12T21:11:57.858Z,91.30
2023-04-12T21:14:25.099Z,91.40
2023-04-12T21:16:52.493Z,92.10
2023-04-12T21:19:19.432Z,93.10
2023-04-12T21:21:46.335Z,93.30
2023-04-12T21:24:13.656Z,94.10
2023-04-12T21:26:42.291Z,94.40
2023-04-12T21:29:09.283Z,94.80
2023-04-12T21:31:38.975Z,95.10
2023-04-12T21:34:07.179Z,95.40
2023-04-12T21:36:34.159Z,96.20
2023-04-12T21:39:01.248Z,96.40
2023-04-12T21:41:29.663Z,96.60
2023-04-12T21:43:56.693Z,96.90
2023-04-12T21:46:27.595Z,97.10
2023-04-12T21:48:54.668Z,97.30
2023-04-12T21:51:23.399Z,97.70
2023-04-12T21:53:50.185Z,97.70
2023-04-12T21:56:16.965Z,97.90
2023-04-12T21:58:43.762Z,98.20
2023-04-12T22:01:10.572Z,98.40
2023-04-12T22:03:37.515Z,98.40
2023-04-12T22:06:05.451Z,98.30
2023-04-12T22:08:32.978Z,98.40
2023-04-12T22:11:00.396Z,98.50
2023-04-12T22:13:27.570Z,98.40
2023-04-12T22:15:54.353Z,98.50
2023-04-12T22:18:22.024Z,98.60
2023-04-12T22:20:48.828Z,98.70
2023-04-12T22:23:18.118Z,99.00
2023-04-12T22:25:45.666Z,99.30
2023-04-12T22:28:14.530Z,99.30
2023-04-12T22:30:41.321Z,99.60
2023-04-12T22:33:08.512Z,99.90
2023-04-12T22:35:36.445Z,100.00
2023-04-12T22:38:04.108Z,100.00
2023-04-12T22:40:31.071Z,100.00
2023-04-12T22:42:58.244Z,100.00
2023-04-12T22:45:25.166Z,100.00
2023-04-12T22:47:52.870Z,100.00
2023-04-12T22:50:20.388Z,100.00
2023-04-12T22:52:49.749Z,100.00
2023-04-12T22:55:18.098Z,100.00
2023-04-12T22:57:44.994Z,100.00
2023-04-12T23:00:15.691Z,100.00
2023-04-12T23:02:43.943Z,100.00
2023-04-12T23:05:12.042Z,100.00
2023-04-12T23:07:41.209Z,100.00
2023-04-12T23:10:08.918Z,100.00
2023-04-12T23:12:37.140Z,100.00
2023-04-12T23:15:04.294Z,100.00
2023-04-12T23:17:31.373Z,100.00
2023-04-12T23:20:01.623Z,100.00
2023-04-12T23:22:55.308Z,100.00
2023-04-12T23:25:41.362Z,100.00
2023-04-12T23:28:13.536Z,100.00
2023-04-12T23:30:48.883Z,100.00
2023-04-12T23:33:20.325Z,100.00
2023-04-12T23:35:53.074Z,100.00
2023-04-12T23:38:24.460Z,100.00
2023-04-12T23:40:53.899Z,100.00
2023-04-12T23:43:22.013Z,100.00
2023-04-12T23:45:49.331Z,100.00
2023-04-12T23:48:19.290Z,100.00
2023-04-12T23:50:46.552Z,100.00
2023-04-12T23:53:13.797Z,100.00
2023-04-12T23:55:42.710Z,100.00
2023-04-12T23:58:09.850Z,100.00
